NCAR-RAP Real-Time Weather Data

Output produced by METARs form (10 April 2020  07:15 UTC)
found at http://weather.rap.ucar.edu/surface/
 
KHTS 100651Z 26007KT 10SM FEW065 BKN090 OVC110 04/M01 A2980 RMK AO2 SLP093 T00391011